Decoded Metar for VTSR (RANONG in THAILAND) (IATA:N/A) | Meteo·Mobile Aviation Weather
aviador You're here:

VTSR Decoded Metar

RANONG in THAILAND
Report Time2019-07-23 02:00:00
UTC Time2019-07-23 02:36:44
Flight Rules vfr VFR
Wind180° at 03 kt
W.Decomp.*RWY 20: 2.8 kt HW 1 kt LCW
Visibility9999 m
Phenomena:N/A
Clouds:Few 020 Hf
Expected CloudBase > 2,000 ft AGL from Temp-Dew spread
CeilingNone
Temp31°C (ISA +16)
Dew Point26°C (75% RH)
Heat Index39.2°C
QNH1010 hPa
Density Alt2,402 ft
Elevation26 ft
Report Wrong Elevation
Raw Report
VTSR 230200Z 18003KT 110V250 9999 FEW020 31/26 Q1010 NOSIG=

Extra information for VTSR:More info

Metar Taf Metar & Taf Last 4 Metars F.Rules Stats Wind Profile Meteogram Temp Stats Airport Information Weather charts Add Link Nearby VenuesMetar ALERT Operation Metar Decoded Social comments